createdAt,value
2023-06-10T00:01:07.756Z,95970.00
2023-06-10T00:02:27.962Z,95970.31
2023-06-10T00:03:44.980Z,95972.81
2023-06-10T00:05:05.384Z,95972.38
2023-06-10T00:06:22.494Z,95975.69
2023-06-10T00:07:42.672Z,95969.88
2023-06-10T00:09:02.758Z,95967.81
2023-06-10T00:10:22.832Z,95974.25
2023-06-10T00:11:39.876Z,95972.25
2023-06-10T00:12:59.895Z,95963.75
2023-06-10T00:14:16.975Z,95970.53
2023-06-10T00:15:34.025Z,95973.03
2023-06-10T00:16:54.232Z,95973.34
2023-06-10T00:18:14.168Z,95974.47
2023-06-10T00:19:34.462Z,95967.38
2023-06-10T00:20:51.513Z,95973.03
2023-06-10T00:22:11.719Z,95969.91
2023-06-10T00:23:29.123Z,95976.66
2023-06-10T00:24:49.290Z,95970.84
2023-06-10T00:26:09.662Z,95974.59
2023-06-10T00:27:29.707Z,95971.47
2023-06-10T00:28:49.887Z,95974.44
2023-06-10T00:30:09.888Z,95976.66
2023-06-10T00:31:26.944Z,95971.44
2023-06-10T00:32:47.348Z,95973.34
2023-06-10T00:34:07.394Z,95968.31
2023-06-10T00:35:24.539Z,95973.97
2023-06-10T00:36:44.510Z,95962.03
2023-06-10T00:38:04.610Z,95971.16
2023-06-10T00:39:24.650Z,95963.47
2023-06-10T00:40:44.794Z,95968.63
2023-06-10T00:42:04.943Z,95965.19
2023-06-10T00:43:22.269Z,95965.03
2023-06-10T00:44:39.371Z,95962.66
2023-06-10T00:45:59.724Z,95971.78
2023-06-10T00:47:19.953Z,95966.75
2023-06-10T00:48:40.352Z,95960.94
2023-06-10T00:49:57.324Z,95962.38
2023-06-10T00:51:17.330Z,95959.19
2023-06-10T00:52:37.330Z,95964.88
2023-06-10T00:53:57.405Z,95957.19
2023-06-10T00:55:17.371Z,95956.72
2023-06-10T00:56:37.418Z,95952.78
2023-06-10T00:57:54.479Z,95955.00
2023-06-10T00:59:14.706Z,95948.84
2023-06-10T01:00:31.956Z,95957.19
2023-06-10T01:01:49.297Z,95955.13
2023-06-10T01:03:09.955Z,95952.75
2023-06-10T01:04:30.151Z,95949.31
2023-06-10T01:05:50.292Z,95950.41
2023-06-10T01:07:07.225Z,95944.59
2023-06-10T01:08:27.442Z,95944.13
2023-06-10T01:09:47.586Z,95947.13
2023-06-10T01:11:07.637Z,95944.78
2023-06-10T01:12:27.850Z,95949.31
2023-06-10T01:13:48.024Z,95950.72
2023-06-10T01:15:08.817Z,95949.16
2023-06-10T01:16:26.079Z,95938.78
2023-06-10T01:17:46.452Z,95947.88
2023-06-10T01:19:06.571Z,95950.06
2023-06-10T01:20:26.584Z,95951.16
2023-06-10T01:21:43.578Z,95945.66
2023-06-10T01:23:00.603Z,95950.97
2023-06-10T01:24:21.104Z,95951.28
2023-06-10T01:25:41.222Z,95951.28
2023-06-10T01:27:01.205Z,95954.28
2023-06-10T01:28:21.243Z,95953.00
2023-06-10T01:29:41.423Z,95954.41
2023-06-10T01:31:01.828Z,95955.53
2023-06-10T01:32:21.985Z,95958.50
2023-06-10T01:33:42.177Z,95955.38
2023-06-10T01:34:59.204Z,95958.34
2023-06-10T01:36:19.648Z,95958.63
2023-06-10T01:37:36.744Z,95959.75
2023-06-10T01:38:53.869Z,95958.16
2023-06-10T01:40:13.993Z,95950.47
2023-06-10T01:41:34.383Z,95963.00
2023-06-10T01:42:54.377Z,95966.78
2023-06-10T01:44:15.045Z,95959.41
2023-06-10T01:45:35.171Z,95958.63
2023-06-10T01:46:55.586Z,95962.38
2023-06-10T01:48:15.876Z,95961.13
2023-06-10T01:49:36.006Z,95963.78
2023-06-10T01:50:56.275Z,95978.19
2023-06-10T01:52:16.530Z,95968.16
2023-06-10T01:53:33.583Z,95969.56
2023-06-10T01:54:53.598Z,95965.31
2023-06-10T01:56:13.606Z,95965.94
2023-06-10T01:57:33.914Z,95967.81
2023-06-10T01:58:54.042Z,95967.03
2023-06-10T02:00:14.013Z,95965.78
2023-06-10T02:01:34.177Z,95963.09
2023-06-10T02:02:54.349Z,95963.41
2023-06-10T02:04:14.587Z,95969.03
2023-06-10T02:05:34.538Z,95961.03
2023-06-10T02:06:54.671Z,95964.34
2023-06-10T02:08:14.916Z,95966.53
2023-06-10T02:09:31.980Z,95963.06
2023-06-10T02:10:52.491Z,95972.16
2023-06-10T02:12:12.627Z,95976.72
2023-06-10T02:13:32.741Z,95970.91
2023-06-10T02:14:53.080Z,95965.09
2023-06-10T02:16:13.153Z,95969.63
2023-06-10T02:17:33.395Z,95969.13
2023-06-10T02:18:53.567Z,95965.69
2023-06-10T02:20:10.644Z,95962.56
2023-06-10T02:21:31.037Z,95972.44
2023-06-10T02:22:51.065Z,95970.06
2023-06-10T02:24:11.368Z,95968.47
2023-06-10T02:25:31.392Z,95966.16
2023-06-10T02:26:51.516Z,95964.56
2023-06-10T02:28:11.811Z,95966.44
2023-06-10T02:29:32.092Z,95964.09
2023-06-10T02:30:52.170Z,95971.28
2023-06-10T02:32:12.899Z,95969.69
2023-06-10T02:33:33.438Z,95968.13
2023-06-10T02:34:53.466Z,95970.31
2023-06-10T02:36:13.885Z,95972.97
2023-06-10T02:37:34.191Z,95973.75
2023-06-10T02:38:54.545Z,95976.41
2023-06-10T02:40:14.514Z,95972.19
2023-06-10T02:41:34.646Z,95979.66
2023-06-10T02:42:54.951Z,95986.09
2023-06-10T02:44:15.122Z,95985.31
2023-06-10T02:45:35.496Z,95987.19
2023-06-10T02:46:55.676Z,95978.41
2023-06-10T02:48:15.698Z,95983.72
2023-06-10T02:49:35.818Z,95991.25
2023-06-10T02:50:56.094Z,95981.69
2023-06-10T02:52:13.190Z,95970.25
2023-06-10T02:53:33.339Z,95982.78
2023-06-10T02:54:53.382Z,95980.13
2023-06-10T02:56:10.463Z,95983.06
2023-06-10T02:57:30.580Z,95980.75
2023-06-10T02:58:50.703Z,95984.19
2023-06-10T03:00:10.965Z,95986.06
2023-06-10T03:01:28.266Z,95979.16
2023-06-10T03:02:48.414Z,95979.94
2023-06-10T03:04:08.428Z,95973.03
2023-06-10T03:05:28.474Z,95973.03
2023-06-10T03:06:45.751Z,95980.25
2023-06-10T03:08:05.784Z,95980.25
2023-06-10T03:09:25.992Z,95972.28
2023-06-10T03:10:46.021Z,95985.59
2023-06-10T03:12:06.017Z,95980.25
2023-06-10T03:13:26.198Z,95974.13
2023-06-10T03:14:46.441Z,95974.13
2023-06-10T03:16:06.523Z,95985.88
2023-06-10T03:17:26.904Z,95979.78
2023-06-10T03:18:47.024Z,95968.31
2023-06-10T03:20:07.128Z,95975.53
2023-06-10T03:21:27.338Z,95973.94
2023-06-10T03:22:47.710Z,95975.03
2023-06-10T03:24:09.168Z,95973.16
2023-06-10T03:25:29.215Z,95975.03
2023-06-10T03:26:49.180Z,95974.56
2023-06-10T03:28:06.220Z,95980.66
2023-06-10T03:29:26.259Z,95984.44
2023-06-10T03:30:46.304Z,95979.09
2023-06-10T03:32:06.617Z,95975.97
2023-06-10T03:33:27.015Z,95979.72
2023-06-10T03:34:47.203Z,95977.81
2023-06-10T03:36:07.296Z,95976.25
2023-06-10T03:37:24.323Z,95983.47
2023-06-10T03:38:44.707Z,95983.00
2023-06-10T03:40:01.943Z,95984.84
2023-06-10T03:41:19.365Z,95983.28
2023-06-10T03:42:39.705Z,95985.94
2023-06-10T03:43:59.805Z,95977.97
2023-06-10T03:45:16.853Z,95973.72
2023-06-10T03:46:36.833Z,95983.59
2023-06-10T03:47:56.881Z,95982.03
2023-06-10T03:49:13.764Z,95985.75
2023-06-10T03:50:33.799Z,95988.41
2023-06-10T03:51:53.990Z,95985.75
2023-06-10T03:53:14.192Z,95984.97
2023-06-10T03:54:34.282Z,95984.19
2023-06-10T03:55:54.660Z,95981.50
2023-06-10T03:57:11.905Z,95990.59
2023-06-10T03:58:31.931Z,95995.94
2023-06-10T03:59:52.106Z,95995.94
2023-06-10T04:01:12.224Z,95996.69
2023-06-10T04:02:32.662Z,96000.16
2023-06-10T04:03:52.909Z,95999.06
2023-06-10T04:05:13.428Z,96000.66
2023-06-10T04:06:33.533Z,95996.88
2023-06-10T04:07:53.725Z,95995.81
2023-06-10T04:09:10.742Z,96003.47
2023-06-10T04:10:27.816Z,95998.16
2023-06-10T04:11:47.937Z,95997.56
2023-06-10T04:13:08.142Z,95995.38
2023-06-10T04:14:28.130Z,95996.63
2023-06-10T04:15:48.181Z,95990.72
2023-06-10T04:17:08.510Z,96004.50
2023-06-10T04:18:28.625Z,96000.94
2023-06-10T04:19:48.669Z,96004.06
2023-06-10T04:21:08.815Z,95992.50
2023-06-10T04:22:26.207Z,95995.34
2023-06-10T04:23:46.328Z,95990.72
2023-06-10T04:25:06.367Z,96004.22
2023-06-10T04:26:26.436Z,95997.66
2023-06-10T04:27:46.586Z,96003.16
2023-06-10T04:29:06.998Z,96002.22
2023-06-10T04:30:27.340Z,96004.78
2023-06-10T04:31:47.574Z,96004.63
2023-06-10T04:33:07.645Z,96003.41
2023-06-10T04:34:27.990Z,95999.50
2023-06-10T04:35:48.059Z,96001.25
2023-06-10T04:37:08.479Z,95998.91
2023-06-10T04:38:28.286Z,96001.94
2023-06-10T04:39:48.431Z,96004.94
2023-06-10T04:41:08.590Z,96006.38
2023-06-10T04:42:28.776Z,96001.84
2023-06-10T04:43:48.960Z,96000.59
2023-06-10T04:45:06.050Z,96004.72
2023-06-10T04:46:26.489Z,96007.38
2023-06-10T04:47:46.680Z,96010.06
2023-06-10T04:49:06.616Z,96005.06
2023-06-10T04:50:26.730Z,96011.19
2023-06-10T04:51:44.139Z,96011.50
2023-06-10T04:53:04.176Z,96008.84
2023-06-10T04:54:24.444Z,96007.75
2023-06-10T04:55:44.711Z,96018.91
2023-06-10T04:57:04.824Z,96010.41
2023-06-10T04:58:25.087Z,96016.22
2023-06-10T04:59:45.252Z,96017.78
2023-06-10T05:01:05.279Z,96016.63
2023-06-10T05:02:25.602Z,96020.84
2023-06-10T05:03:45.679Z,96026.22
2023-06-10T05:05:05.801Z,96014.06
2023-06-10T05:06:25.722Z,96017.47
2023-06-10T05:07:45.923Z,96019.16
2023-06-10T05:09:05.750Z,96013.75
2023-06-10T05:10:25.808Z,96016.84
2023-06-10T05:11:45.928Z,96011.16
2023-06-10T05:13:06.141Z,96016.16
2023-06-10T05:14:23.159Z,96027.25
2023-06-10T05:15:43.307Z,96025.75
2023-06-10T05:17:03.576Z,96019.69
2023-06-10T05:18:23.764Z,96028.88
2023-06-10T05:19:43.762Z,96029.75
2023-06-10T05:21:03.935Z,96029.38
2023-06-10T05:22:24.034Z,96028.63
2023-06-10T05:23:44.037Z,96027.44
2023-06-10T05:25:04.037Z,96022.91
2023-06-10T05:26:24.283Z,96023.28
2023-06-10T05:27:44.443Z,96022.53
2023-06-10T05:29:04.610Z,96023.34
2023-06-10T05:30:24.833Z,96021.03
2023-06-10T05:31:45.163Z,96016.00
2023-06-10T05:33:05.432Z,96015.53
2023-06-10T05:34:25.495Z,96023.25
2023-06-10T05:35:42.597Z,96023.63
2023-06-10T05:37:02.665Z,96017.78
2023-06-10T05:38:22.825Z,96022.38
2023-06-10T05:39:42.899Z,96027.72
2023-06-10T05:41:03.397Z,96029.59
2023-06-10T05:42:20.310Z,96022.16
2023-06-10T05:43:40.611Z,96027.16
2023-06-10T05:45:01.014Z,96029.03
2023-06-10T05:46:21.294Z,96029.34
2023-06-10T05:47:38.578Z,96028.50
2023-06-10T05:48:58.537Z,96026.09
2023-06-10T05:50:18.599Z,96026.47
2023-06-10T05:51:38.833Z,96026.75
2023-06-10T05:52:55.828Z,96028.59
2023-06-10T05:54:16.299Z,96025.81
2023-06-10T05:55:36.435Z,96024.13
2023-06-10T05:56:56.608Z,96027.56
2023-06-10T05:58:16.700Z,96027.44
2023-06-10T05:59:33.824Z,96027.66
2023-06-10T06:00:51.194Z,96027.16
2023-06-10T06:02:08.302Z,96027.38
2023-06-10T06:03:28.872Z,96028.03
2023-06-10T06:04:49.023Z,96026.00
2023-06-10T06:06:09.054Z,96030.13
2023-06-10T06:07:29.163Z,96025.69
2023-06-10T06:08:46.138Z,96029.75
2023-06-10T06:10:03.145Z,96028.06
2023-06-10T06:11:23.520Z,96026.34
2023-06-10T06:12:43.565Z,96018.44
2023-06-10T06:14:03.627Z,96028.69
2023-06-10T06:15:23.986Z,96025.75
2023-06-10T06:16:43.996Z,96022.13
2023-06-10T06:18:01.070Z,96028.81
2023-06-10T06:19:21.470Z,96026.31
2023-06-10T06:20:41.785Z,96027.25
2023-06-10T06:22:01.873Z,96027.41
2023-06-10T06:23:21.998Z,96026.81
2023-06-10T06:24:42.148Z,96031.56
2023-06-10T06:26:02.234Z,96028.25
2023-06-10T06:27:22.440Z,96028.75
2023-06-10T06:28:39.492Z,96027.69
2023-06-10T06:29:59.405Z,96034.38
2023-06-10T06:31:17.209Z,96030.66
2023-06-10T06:32:37.539Z,96035.41
2023-06-10T06:33:57.639Z,96026.97
2023-06-10T06:35:17.776Z,96027.47
2023-06-10T06:36:34.846Z,96025.63
2023-06-10T06:37:51.932Z,96021.84
2023-06-10T06:39:11.962Z,96022.72
2023-06-10T06:40:32.362Z,96022.03
2023-06-10T06:41:52.459Z,96019.03
2023-06-10T06:43:12.715Z,96021.03
2023-06-10T06:44:32.758Z,96018.78
2023-06-10T06:45:52.807Z,96021.19
2023-06-10T06:47:13.026Z,96025.53
2023-06-10T06:48:29.919Z,96024.78
2023-06-10T06:49:49.963Z,96026.41
2023-06-10T06:51:10.035Z,96023.00
2023-06-10T06:52:30.360Z,96032.72
2023-06-10T06:53:50.471Z,96028.91
2023-06-10T06:55:10.992Z,96031.28
2023-06-10T06:56:31.444Z,96033.69
2023-06-10T06:57:51.773Z,96029.06
2023-06-10T06:59:11.924Z,96031.44
2023-06-10T07:00:32.235Z,96038.06
2023-06-10T07:01:52.337Z,96028.03
2023-06-10T07:03:12.461Z,96030.38
2023-06-10T07:04:32.459Z,96038.97
2023-06-10T07:05:52.684Z,96032.41
2023-06-10T07:07:12.796Z,96040.19
2023-06-10T07:08:33.018Z,96037.88
2023-06-10T07:09:53.176Z,96037.88
2023-06-10T07:11:13.221Z,96040.66
2023-06-10T07:12:33.298Z,96042.59
2023-06-10T07:13:53.231Z,96044.97
2023-06-10T07:15:13.578Z,96045.34
2023-06-10T07:16:33.945Z,96050.41
2023-06-10T07:17:54.097Z,96046.53
2023-06-10T07:19:14.213Z,96043.81
2023-06-10T07:20:34.400Z,96046.91
2023-06-10T07:21:54.449Z,96043.78
2023-06-10T07:23:14.690Z,96053.91
2023-06-10T07:24:31.886Z,96051.97
2023-06-10T07:25:51.935Z,96058.53
2023-06-10T07:27:09.153Z,96045.72
2023-06-10T07:28:29.203Z,96054.63
2023-06-10T07:29:49.407Z,96051.16
2023-06-10T07:31:06.649Z,96056.16
2023-06-10T07:32:26.852Z,96055.00
2023-06-10T07:33:46.891Z,96054.19
2023-06-10T07:35:07.218Z,96051.09
2023-06-10T07:36:24.635Z,96053.00
2023-06-10T07:37:44.645Z,96050.28
2023-06-10T07:39:04.811Z,96053.75
2023-06-10T07:40:25.010Z,96049.09
2023-06-10T07:41:45.016Z,96052.97
2023-06-10T07:43:02.121Z,96049.47
2023-06-10T07:44:21.955Z,96044.03
2023-06-10T07:45:42.003Z,96052.19
2023-06-10T07:47:02.317Z,96054.13
2023-06-10T07:48:19.303Z,96048.31
2023-06-10T07:49:39.462Z,96052.59
2023-06-10T07:50:59.683Z,96047.53
2023-06-10T07:52:19.985Z,96047.53
2023-06-10T07:53:37.510Z,96051.41
2023-06-10T07:54:57.758Z,96054.91
2023-06-10T07:56:17.724Z,96050.25
2023-06-10T07:57:37.878Z,96048.69
2023-06-10T07:58:57.974Z,96051.03
2023-06-10T08:00:18.229Z,96055.31
2023-06-10T08:01:38.428Z,96054.53
2023-06-10T08:02:58.704Z,96049.09
2023-06-10T08:04:18.987Z,96052.59
2023-06-10T08:05:39.331Z,96050.66
2023-06-10T08:06:59.445Z,96053.38
2023-06-10T08:08:19.805Z,96052.19
2023-06-10T08:09:40.395Z,96056.50
2023-06-10T08:11:00.555Z,96061.56
2023-06-10T08:12:17.829Z,96064.66
2023-06-10T08:13:38.224Z,96066.97
2023-06-10T08:14:58.203Z,96069.66
2023-06-10T08:16:18.435Z,96071.22
2023-06-10T08:17:35.891Z,96062.66
2023-06-10T08:18:56.036Z,96066.94
2023-06-10T08:20:16.058Z,96068.84
2023-06-10T08:21:36.196Z,96077.38
2023-06-10T08:22:56.291Z,96073.13
2023-06-10T08:24:16.723Z,96071.53
2023-06-10T08:25:37.046Z,96073.44
2023-06-10T08:26:57.265Z,96077.34
2023-06-10T08:28:17.731Z,96066.44
2023-06-10T08:29:37.752Z,96068.75
2023-06-10T08:30:57.970Z,96073.81
2023-06-10T08:32:17.974Z,96075.38
2023-06-10T08:33:35.161Z,96073.41
2023-06-10T08:34:55.202Z,96069.50
2023-06-10T08:36:15.470Z,96066.75
2023-06-10T08:37:35.727Z,96074.53
2023-06-10T08:38:55.790Z,96068.72
2023-06-10T08:40:13.040Z,96075.72
2023-06-10T08:41:33.216Z,96064.81
2023-06-10T08:42:50.591Z,96066.78
2023-06-10T08:44:10.781Z,96059.38
2023-06-10T08:45:30.825Z,96074.16
2023-06-10T08:46:51.155Z,96070.25
2023-06-10T08:48:11.676Z,96063.22
2023-06-10T08:49:28.581Z,96071.78
2023-06-10T08:50:48.831Z,96075.66
2023-06-10T08:52:05.989Z,96062.03
2023-06-10T08:53:26.388Z,96066.28
2023-06-10T08:54:46.633Z,96067.41
2023-06-10T08:56:06.728Z,96068.94
2023-06-10T08:57:23.624Z,96063.47
2023-06-10T08:58:43.832Z,96062.28
2023-06-10T09:00:03.990Z,96061.47
2023-06-10T09:01:24.145Z,96064.94
2023-06-10T09:02:44.240Z,96065.31
2023-06-10T09:04:04.228Z,96066.44
2023-06-10T09:05:24.292Z,96065.31
2023-06-10T09:06:44.492Z,96062.19
2023-06-10T09:08:04.900Z,96061.00
2023-06-10T09:09:21.882Z,96062.56
2023-06-10T09:10:42.297Z,96061.81
2023-06-10T09:12:02.542Z,96057.88
2023-06-10T09:13:22.804Z,96069.56
2023-06-10T09:14:42.870Z,96064.09
2023-06-10T09:16:03.391Z,96065.69
2023-06-10T09:17:23.877Z,96068.03
2023-06-10T09:18:44.313Z,96071.91
2023-06-10T09:20:04.873Z,96071.53
2023-06-10T09:21:25.319Z,96062.22
2023-06-10T09:22:45.685Z,96065.34
2023-06-10T09:24:06.065Z,96064.59
2023-06-10T09:25:26.453Z,96068.13
2023-06-10T09:26:47.053Z,96061.53
2023-06-10T09:28:07.451Z,96069.34
2023-06-10T09:29:27.930Z,96066.25
2023-06-10T09:30:48.269Z,96063.56
2023-06-10T09:32:10.543Z,96071.34
2023-06-10T09:33:30.901Z,96062.44
2023-06-10T09:34:51.164Z,96067.91
2023-06-10T09:36:11.547Z,96065.56
2023-06-10T09:37:31.948Z,96062.09
2023-06-10T09:38:52.445Z,96069.88
2023-06-10T09:40:12.756Z,96064.06
2023-06-10T09:41:32.974Z,96073.38
2023-06-10T09:42:50.204Z,96066.75
2023-06-10T09:44:10.391Z,96067.97
2023-06-10T09:45:30.535Z,96068.72
2023-06-10T09:46:50.997Z,96067.97
2023-06-10T09:48:08.375Z,96069.13
2023-06-10T09:49:28.667Z,96064.84
2023-06-10T09:50:45.885Z,96066.78
2023-06-10T09:52:06.023Z,96069.50
2023-06-10T09:53:23.323Z,96063.69
2023-06-10T09:54:43.533Z,96065.63
2023-06-10T09:56:03.909Z,96066.03
2023-06-10T09:57:24.197Z,96071.47
2023-06-10T09:58:44.694Z,96067.22
2023-06-10T10:00:04.980Z,96067.97
2023-06-10T10:01:25.485Z,96067.22
2023-06-10T10:02:45.651Z,96056.31
2023-06-10T10:04:05.694Z,96059.81
2023-06-10T10:05:25.932Z,96054.38
2023-06-10T10:06:43.204Z,96063.31
2023-06-10T10:08:03.601Z,96060.19
2023-06-10T10:09:23.943Z,96052.41
2023-06-10T10:10:44.230Z,96066.00
2023-06-10T10:12:01.618Z,96059.38
2023-06-10T10:13:18.810Z,96062.50
2023-06-10T10:14:38.959Z,96066.38
2023-06-10T10:15:59.244Z,96061.31
2023-06-10T10:17:19.632Z,96066.38
2023-06-10T10:18:40.033Z,96065.94
2023-06-10T10:20:00.453Z,96064.78
2023-06-10T10:21:20.711Z,96067.53
2023-06-10T10:22:41.034Z,96067.13
2023-06-10T10:23:58.321Z,96075.28
2023-06-10T10:25:18.643Z,96065.56
2023-06-10T10:26:38.825Z,96073.34
2023-06-10T10:27:59.377Z,96067.13
2023-06-10T10:29:19.780Z,96068.28
2023-06-10T10:30:40.109Z,96072.97
2023-06-10T10:32:00.496Z,96076.09
2023-06-10T10:33:17.826Z,96081.16
2023-06-10T10:34:38.009Z,96066.38
2023-06-10T10:35:58.301Z,96071.06
2023-06-10T10:37:18.628Z,96064.41
2023-06-10T10:38:36.017Z,96069.13
2023-06-10T10:39:56.401Z,96071.47
2023-06-10T10:41:13.503Z,96071.47
2023-06-10T10:42:30.900Z,96060.63
2023-06-10T10:43:50.969Z,96060.63
2023-06-10T10:45:11.494Z,96069.59
2023-06-10T10:46:31.876Z,96064.94
2023-06-10T10:47:52.032Z,96073.50
2023-06-10T10:49:12.157Z,96067.31
2023-06-10T10:50:33.699Z,96068.50
2023-06-10T14:58:06.983Z,96038.34
2023-06-10T14:59:08.498Z,96040.13
2023-06-10T15:00:09.971Z,96035.34
2023-06-10T15:01:11.469Z,96036.44
2023-06-10T15:02:13.003Z,96028.16
2023-06-10T15:03:14.515Z,96037.41
2023-06-10T15:04:16.159Z,96043.41
2023-06-10T15:07:08.284Z,96033.94
2023-06-10T15:08:09.770Z,96039.84
2023-06-10T15:09:11.277Z,96038.78
2023-06-10T15:10:12.775Z,96048.41
2023-06-10T15:11:14.251Z,96053.41
2023-06-10T15:12:15.739Z,96046.81
2023-06-10T15:13:17.248Z,96045.22
2023-06-10T15:14:18.739Z,96048.19
2023-06-10T15:15:20.216Z,96056.16
2023-06-10T15:16:21.846Z,96051.72
2023-06-10T15:17:23.375Z,96046.50
2023-06-10T15:18:24.895Z,96046.28
2023-06-10T15:19:26.424Z,96044.16
2023-06-10T15:20:27.929Z,96044.28
2023-06-10T15:21:29.468Z,96040.91
2023-06-10T15:22:31.519Z,96040.28
2023-06-10T15:23:34.280Z,96041.16
2023-06-10T15:24:35.847Z,96033.91
2023-06-10T15:25:37.499Z,96030.94
2023-06-10T15:26:39.253Z,96031.38
2023-06-10T15:27:40.769Z,96033.41
2023-06-10T15:28:42.222Z,96034.22
2023-06-10T15:29:43.870Z,96028.88
2023-06-10T15:30:45.348Z,96030.84
2023-06-10T15:31:46.883Z,96028.22
2023-06-10T15:32:48.538Z,96023.25
2023-06-10T15:33:50.323Z,96025.59
2023-06-10T15:34:52.197Z,96027.97
2023-06-10T15:35:54.098Z,96028.78
2023-06-10T15:36:55.770Z,96027.66
2023-06-10T15:37:57.519Z,96024.59
2023-06-10T15:38:59.032Z,96026.94
2023-06-10T15:40:00.596Z,96020.41
2023-06-10T15:41:02.143Z,96032.81
2023-06-10T15:42:03.645Z,96023.56
2023-06-10T15:43:05.218Z,96029.00
2023-06-10T15:44:06.765Z,96027.88
2023-06-10T15:45:08.723Z,96036.03
2023-06-10T15:46:10.484Z,96035.66
2023-06-10T15:47:12.038Z,96044.59
2023-06-10T15:48:13.517Z,96046.53
2023-06-10T15:49:15.000Z,96038.78
2023-06-10T15:50:16.477Z,96038.81
2023-06-10T15:51:17.983Z,96041.94
2023-06-10T15:52:19.494Z,96043.50
2023-06-10T15:53:21.021Z,96039.63
2023-06-10T15:54:22.468Z,96045.06
2023-06-10T15:55:23.950Z,96045.84
2023-06-10T15:56:25.466Z,96051.28
2023-06-10T15:57:27.312Z,96043.53
2023-06-10T15:58:28.887Z,96040.47
2023-06-10T15:59:30.462Z,96045.53
2023-06-10T16:00:32.008Z,96041.66
2023-06-10T16:01:33.610Z,96049.41
2023-06-10T16:02:37.270Z,96054.47
2023-06-10T16:03:39.258Z,96055.25
2023-06-10T16:04:40.792Z,96055.25
2023-06-10T16:05:42.286Z,96057.56
2023-06-10T16:06:43.779Z,96053.28
2023-06-10T16:07:45.261Z,96054.88
2023-06-10T16:08:46.736Z,96049.44
2023-06-10T16:09:48.209Z,96050.56
2023-06-10T16:10:49.726Z,96053.28
2023-06-10T16:11:51.245Z,96048.63
2023-06-10T16:12:52.765Z,96049.44
2023-06-10T16:13:54.245Z,96050.19
2023-06-10T16:14:55.720Z,96049.03
2023-06-10T16:15:57.195Z,96050.56
2023-06-10T16:16:59.712Z,96051.75
2023-06-10T16:18:01.304Z,96042.81
2023-06-10T16:19:02.816Z,96048.25
2023-06-10T16:20:04.316Z,96052.13
2023-06-10T16:21:05.785Z,96047.06
2023-06-10T16:22:07.275Z,96050.16
2023-06-10T16:23:08.727Z,96048.59
2023-06-10T16:24:10.232Z,96054.78
2023-06-10T16:25:12.114Z,96055.97
2023-06-10T16:26:13.849Z,96048.97
2023-06-10T16:27:15.360Z,96048.97
2023-06-10T16:28:16.815Z,96057.88
2023-06-10T16:29:18.309Z,96046.25
2023-06-10T16:30:19.769Z,96057.09
2023-06-10T16:31:21.364Z,96052.81
2023-06-10T16:32:23.084Z,96055.16
2023-06-10T16:33:24.564Z,96054.41
2023-06-10T16:34:26.154Z,96059.06
2023-06-10T16:35:27.629Z,96060.59
2023-06-10T16:36:29.102Z,96050.53
2023-06-10T16:37:30.617Z,96053.63
2023-06-10T16:38:32.107Z,96047.41
2023-06-10T16:39:33.608Z,96054.41
2023-06-10T16:40:35.083Z,96054.41
2023-06-10T16:41:36.548Z,96057.09
2023-06-10T16:42:38.072Z,96053.63
2023-06-10T16:43:39.514Z,96057.88
2023-06-10T16:44:40.991Z,96056.34
2023-06-10T16:45:42.521Z,96058.25
2023-06-10T16:46:44.049Z,96052.81
2023-06-10T16:47:45.606Z,96054.78
2023-06-10T16:48:47.239Z,96057.47
2023-06-10T16:49:50.665Z,96065.22
2023-06-10T16:50:52.702Z,96057.09
2023-06-10T16:51:54.176Z,96062.13
2023-06-10T16:52:55.657Z,96065.59
2023-06-10T16:53:57.132Z,96067.53
2023-06-10T16:54:58.611Z,96064.06
2023-06-10T16:56:03.118Z,96060.56
2023-06-10T16:57:05.039Z,96057.88
2023-06-10T16:58:06.536Z,96063.28
2023-06-10T16:59:07.993Z,96063.28
2023-06-10T17:00:09.507Z,96059.00
2023-06-10T17:01:11.020Z,96058.25
2023-06-10T17:02:12.539Z,96062.91
2023-06-10T17:03:14.033Z,96060.19
2023-06-10T17:04:15.649Z,96059.38
2023-06-10T17:05:17.175Z,96059.38
2023-06-10T17:06:18.707Z,96059.78
2023-06-10T17:07:20.168Z,96060.56
2023-06-10T17:08:21.680Z,96062.50
2023-06-10T17:09:23.199Z,96063.66
2023-06-10T17:10:24.675Z,96065.59
2023-06-10T17:11:26.175Z,96064.81
2023-06-10T17:12:27.654Z,96066.72
2023-06-10T17:13:29.195Z,96062.47
2023-06-10T17:14:30.713Z,96062.47
2023-06-10T17:15:32.231Z,96059.75
2023-06-10T17:16:33.751Z,96071.38
2023-06-10T17:17:35.325Z,96062.09
2023-06-10T17:18:36.954Z,96064.00
2023-06-10T17:19:38.504Z,96066.69
2023-06-10T17:20:39.967Z,96063.22
2023-06-10T17:21:41.462Z,96065.94
2023-06-10T17:22:42.993Z,96071.34
2023-06-10T17:23:44.587Z,96066.31
2023-06-10T17:24:46.157Z,96071.34
2023-06-10T17:25:47.659Z,96070.56
2023-06-10T17:26:49.148Z,96074.03
2023-06-10T17:27:50.637Z,96073.28
2023-06-10T17:28:52.181Z,96073.28
2023-06-10T17:29:53.671Z,96071.75
2023-06-10T17:30:55.181Z,96071.75
2023-06-10T17:31:56.692Z,96071.75
2023-06-10T17:32:58.290Z,96074.44
2023-06-10T17:33:59.831Z,96071.75
2023-06-10T17:35:01.367Z,96070.16
2023-06-10T17:36:02.826Z,96077.16
2023-06-10T17:37:04.314Z,96076.34
2023-06-10T17:38:05.792Z,96079.88
2023-06-10T17:39:07.326Z,96076.34
2023-06-10T17:40:08.856Z,96074.81
2023-06-10T17:41:10.316Z,96084.50
2023-06-10T17:42:11.798Z,96084.91
2023-06-10T17:43:13.276Z,96084.91
2023-06-10T17:44:14.820Z,96088.78
2023-06-10T17:45:16.317Z,96093.03
2023-06-10T17:46:17.826Z,96093.03
2023-06-10T17:47:19.343Z,96084.91
2023-06-10T17:48:20.853Z,96097.69
2023-06-10T17:49:22.349Z,96098.44
2023-06-10T17:50:23.830Z,96103.88
2023-06-10T17:51:25.285Z,96107.75
2023-06-10T17:52:26.806Z,96098.84
2023-06-10T17:53:28.289Z,96100.38
2023-06-10T17:54:29.799Z,96099.97
2023-06-10T17:55:31.293Z,96114.69
2023-06-10T17:56:32.798Z,96106.16
2023-06-10T17:57:34.289Z,96116.59
2023-06-10T17:58:35.806Z,96115.41
2023-06-10T17:59:37.329Z,96111.16
2023-06-10T18:00:38.813Z,96112.28
2023-06-10T18:01:40.380Z,96115.41
2023-06-10T18:02:41.950Z,96119.63
2023-06-10T18:03:43.579Z,96116.16
2023-06-10T18:04:45.300Z,96119.63
2023-06-10T18:05:46.782Z,96119.63
2023-06-10T18:06:48.359Z,96110.69
2023-06-10T18:07:49.845Z,96116.53
2023-06-10T18:08:51.319Z,96113.41
2023-06-10T18:09:52.874Z,96128.84
2023-06-10T18:10:54.375Z,96126.50
2023-06-10T18:11:55.892Z,96124.97
2023-06-10T18:12:57.382Z,96123.38
2023-06-10T18:13:58.846Z,96123.78
2023-06-10T18:15:00.309Z,96125.69
2023-06-10T18:16:01.799Z,96129.56
2023-06-10T18:17:03.384Z,96135.38
2023-06-10T18:18:04.866Z,96133.81
2023-06-10T18:19:06.350Z,96127.59
2023-06-10T18:20:07.859Z,96135.34
2023-06-10T18:21:09.351Z,96129.13
2023-06-10T18:22:10.822Z,96133.78
2023-06-10T18:23:12.323Z,96137.63
2023-06-10T18:24:13.835Z,96136.09
2023-06-10T18:25:15.364Z,96133.75
2023-06-10T18:26:16.829Z,96129.47
2023-06-10T18:27:18.310Z,96132.59
2023-06-10T18:28:19.791Z,96132.19
2023-06-10T18:29:21.268Z,96133.31
2023-06-10T18:30:22.765Z,96132.91
2023-06-10T18:31:26.618Z,96135.63
2023-06-10T18:32:32.166Z,96137.94
2023-06-10T18:33:33.751Z,96139.09
2023-06-10T18:34:35.223Z,96139.84
2023-06-10T18:35:36.719Z,96135.94
2023-06-10T18:36:38.223Z,96134.38
2023-06-10T18:37:39.733Z,96133.97
2023-06-10T18:38:41.217Z,96128.91
2023-06-10T18:39:42.654Z,96128.91